Time;durP1;ratioP1;P1;durP2;ratioP2;P2;SDS_P1;SDS_P2;PMS_P1;PMS_P2;Temp;Humidity;BMP_temperature;BMP_pressure;BME280_temperature;BME280_humidity;BME280_pressure;Samples;Min_cycle;Max_cycle;Signal;HPM_P1;HPM_P2
2023/01/09 00:01:25;;;;;;;576.23;118.67;;;8.40;99.90;;;;;;5052539;28;20296;-51
2023/01/09 00:03:53;;;;;;;937.63;135.23;;;8.30;99.90;;;;;;5052923;28;20236;-51
2023/01/09 00:06:21;;;;;;;1999.90;442.37;;;8.30;99.90;;;;;;5051873;28;20275;-51
2023/01/09 00:08:49;;;;;;;1113.67;228.27;;;8.20;99.90;;;;;;5052666;28;20324;-51
2023/01/09 00:11:17;;;;;;;538.93;111.77;;;8.20;99.90;;;;;;5032433;28;20202;-51
2023/01/09 00:13:46;;;;;;;1273.07;271.03;;;8.20;99.90;;;;;;5052388;28;20285;-51
2023/01/09 00:16:16;;;;;;;1010.17;166.00;;;8.30;99.90;;;;;;5052917;28;20202;-51
2023/01/09 00:18:45;;;;;;;927.10;154.33;;;8.30;99.90;;;;;;5031926;28;20203;-51
2023/01/09 00:21:13;;;;;;;1076.37;160.07;;;8.30;99.90;;;;;;5051551;28;20289;-51
2023/01/09 00:23:41;;;;;;;1310.57;178.70;;;8.30;99.90;;;;;;5052240;28;20252;-51
2023/01/09 00:26:12;;;;;;;483.63;83.20;;;8.20;99.90;;;;;;5048678;28;20238;-50
2023/01/09 00:28:40;;;;;;;1350.77;225.90;;;8.20;99.90;;;;;;5043606;28;20237;-51
2023/01/09 00:31:09;;;;;;;1635.63;197.63;;;8.20;99.90;;;;;;5052382;28;20229;-51
2023/01/09 00:33:42;;;;;;;1999.90;383.30;;;8.20;99.90;;;;;;5051776;28;20220;-51
2023/01/09 00:36:11;;;;;;;712.57;146.50;;;8.10;99.90;;;;;;5051989;28;20634;-51
2023/01/09 00:38:40;;;;;;;462.33;97.63;;;8.10;99.90;;;;;;5051651;28;20238;-51
2023/01/09 00:41:12;;;;;;;434.93;78.47;;;8.20;99.90;;;;;;5052319;28;20256;-50
2023/01/09 00:43:45;;;;;;;1339.97;195.27;;;8.20;99.90;;;;;;5051973;28;20209;-51
2023/01/09 00:46:14;;;;;;;457.50;92.27;;;8.20;99.90;;;;;;5052011;28;20230;-51
2023/01/09 00:48:48;;;;;;;765.57;98.13;;;8.20;99.90;;;;;;5051948;28;20201;-51
2023/01/09 00:51:17;;;;;;;977.53;155.53;;;8.20;99.90;;;;;;5045648;28;20203;-51
2023/01/09 00:53:46;;;;;;;1815.27;190.10;;;8.20;99.90;;;;;;5046483;28;20289;-51
2023/01/09 00:56:17;;;;;;;952.77;124.10;;;8.20;99.90;;;;;;5051795;28;20725;-51
2023/01/09 00:58:46;;;;;;;1953.47;272.40;;;8.10;99.90;;;;;;5051722;28;20639;-51
2023/01/09 01:01:14;;;;;;;900.97;151.80;;;8.10;99.90;;;;;;5051301;28;20289;-51
2023/01/09 01:03:44;;;;;;;1059.27;170.50;;;8.10;99.90;;;;;;5050981;28;20214;-51
2023/01/09 01:08:57;;;;;;;587.73;88.50;;;8.10;99.90;;;;;;5033936;28;20219;-51
2023/01/09 01:11:25;;;;;;;138.67;37.53;;;8.10;99.90;;;;;;5051668;28;20285;-51
2023/01/09 01:13:54;;;;;;;1328.40;158.37;;;8.10;99.90;;;;;;5047585;28;20267;-51
2023/01/09 01:16:22;;;;;;;865.83;132.70;;;8.10;99.90;;;;;;5046859;28;20274;-50
2023/01/09 01:18:51;;;;;;;1468.80;222.40;;;8.10;99.90;;;;;;5045657;28;20213;-51
2023/01/09 01:21:19;;;;;;;1999.90;272.47;;;8.10;99.90;;;;;;5024407;28;20626;-51
2023/01/09 01:23:47;;;;;;;1384.13;177.83;;;8.00;99.90;;;;;;5051240;28;20251;-51
2023/01/09 01:26:16;;;;;;;1999.90;392.53;;;8.00;99.90;;;;;;5028514;28;20225;-51
2023/01/09 01:28:44;;;;;;;1003.50;178.50;;;8.00;99.90;;;;;;5051238;28;20256;-50
2023/01/09 01:31:17;;;;;;;996.30;142.90;;;8.00;99.90;;;;;;5051105;28;20201;-51
2023/01/09 01:33:45;;;;;;;1999.90;237.03;;;8.00;99.90;;;;;;5032230;28;20215;-50
2023/01/09 01:36:16;;;;;;;1999.90;586.53;;;7.90;99.90;;;;;;5045332;28;20257;-52
2023/01/09 01:38:45;;;;;;;1319.63;210.90;;;7.90;99.90;;;;;;5050996;28;20209;-51
2023/01/09 01:41:28;;;;;;;1794.90;198.73;;;8.00;99.90;;;;;;5051416;28;20296;-50
2023/01/09 01:43:58;;;;;;;1940.17;248.17;;;8.00;99.90;;;;;;5051272;28;20202;-51
2023/01/09 01:46:26;;;;;;;1999.90;356.83;;;7.90;99.90;;;;;;5038995;28;20206;-52
2023/01/09 01:48:58;;;;;;;1030.40;203.33;;;7.90;99.90;;;;;;5049979;28;20622;-51
2023/01/09 01:51:30;;;;;;;303.60;60.17;;;7.90;99.90;;;;;;5040905;28;20271;-51
2023/01/09 01:54:02;;;;;;;335.67;44.33;;;8.00;99.90;;;;;;5017237;28;20233;-51
2023/01/09 01:56:35;;;;;;;25.20;21.00;;;8.00;99.90;;;;;;5030911;28;20301;-51
2023/01/09 01:59:09;;;;;;;1493.40;172.50;;;8.10;99.90;;;;;;5030808;28;20234;-51
2023/01/09 02:01:39;;;;;;;1999.90;371.57;;;8.10;99.90;;;;;;5030182;28;20217;-51
2023/01/09 02:04:08;;;;;;;1579.27;203.90;;;8.10;99.90;;;;;;5030585;28;20216;-52
2023/01/09 02:06:38;;;;;;;842.20;116.77;;;8.10;99.90;;;;;;5026372;28;20255;-52
2023/01/09 02:09:07;;;;;;;1978.33;291.47;;;8.10;99.90;;;;;;5026833;28;20250;-52
2023/01/09 02:11:35;;;;;;;812.13;99.97;;;8.00;99.90;;;;;;5030610;28;20294;-51
2023/01/09 02:14:03;;;;;;;1023.17;150.27;;;8.00;99.90;;;;;;5029797;28;20319;-51
2023/01/09 02:16:46;;;;;;;1999.90;599.10;;;8.00;99.90;;;;;;5020438;28;20234;-51
2023/01/09 02:19:43;;;;;;;806.23;135.70;;;8.00;99.90;;;;;;5027034;28;20753;-52
2023/01/09 02:22:24;;;;;;;328.53;71.70;;;8.00;99.90;;;;;;5029988;28;20234;-52
2023/01/09 02:25:11;;;;;;;401.50;82.67;;;8.00;99.90;;;;;;5019254;28;20206;-52
2023/01/09 02:28:20;;;;;;;456.73;79.97;;;8.00;99.90;;;;;;5030464;28;20261;-52
2023/01/09 02:30:55;;;;;;;29.90;17.87;;;8.10;99.90;;;;;;5030397;28;20298;-50
2023/01/09 02:33:39;;;;;;;137.57;50.67;;;8.10;99.90;;;;;;5017070;28;20206;-52
2023/01/09 02:36:17;;;;;;;122.50;37.17;;;8.20;99.90;;;;;;5029128;28;20745;-52
2023/01/09 02:38:56;;;;;;;80.23;44.57;;;8.20;99.90;;;;;;5035906;28;20267;-51
2023/01/09 02:41:36;;;;;;;167.87;61.27;;;8.20;99.90;;;;;;5044510;28;20628;-51
2023/01/09 02:44:22;;;;;;;594.87;76.57;;;8.30;99.90;;;;;;5049628;28;20282;-51
2023/01/09 02:47:02;;;;;;;151.63;47.87;;;8.20;99.90;;;;;;5049526;28;20260;-50
2023/01/09 02:49:32;;;;;;;90.87;32.20;;;8.20;99.90;;;;;;5049838;28;20371;-51
2023/01/09 02:52:11;;;;;;;142.47;51.23;;;8.20;99.90;;;;;;5048741;28;20233;-50
2023/01/09 02:54:50;;;;;;;146.83;37.50;;;8.20;99.90;;;;;;5031437;28;20245;-51
2023/01/09 02:57:34;;;;;;;34.30;22.50;;;8.20;99.90;;;;;;5049257;28;20287;-52
2023/01/09 03:00:10;;;;;;;30.03;22.23;;;8.20;99.90;;;;;;5049583;28;20241;-52
2023/01/09 03:02:47;;;;;;;318.10;73.30;;;8.20;99.90;;;;;;5022350;28;20772;-51
2023/01/09 03:05:22;;;;;;;227.67;57.33;;;8.20;99.90;;;;;;5036420;28;20253;-55
2023/01/09 03:07:58;;;;;;;463.83;121.20;;;8.10;99.90;;;;;;5049586;28;20221;-52
2023/01/09 03:10:33;;;;;;;616.87;100.50;;;8.10;99.90;;;;;;5049320;28;20944;-51
2023/01/09 03:13:03;;;;;;;51.53;16.00;;;8.10;99.90;;;;;;5045912;28;20232;-50
2023/01/09 03:15:36;;;;;;;34.70;20.03;;;8.10;99.90;;;;;;5038316;28;20292;-52
2023/01/09 03:18:08;;;;;;;157.67;53.57;;;8.10;99.90;;;;;;5049661;28;20306;-52
2023/01/09 03:20:38;;;;;;;95.50;44.70;;;8.00;99.90;;;;;;5049438;28;20244;-51
2023/01/09 03:23:07;;;;;;;66.47;32.67;;;7.90;99.90;;;;;;5049120;28;20198;-51
2023/01/09 03:25:35;;;;;;;165.43;52.40;;;7.90;99.90;;;;;;5048869;28;20725;-50
2023/01/09 03:28:05;;;;;;;77.50;36.33;;;7.80;99.90;;;;;;5048416;28;20260;-51
2023/01/09 03:30:35;;;;;;;245.27;66.97;;;7.70;99.90;;;;;;5049262;28;20291;-51
2023/01/09 03:33:05;;;;;;;130.90;47.50;;;7.60;99.90;;;;;;5048667;28;20749;-50
2023/01/09 03:35:33;;;;;;;42.20;28.73;;;7.60;99.90;;;;;;5049329;28;20240;-51
2023/01/09 03:38:01;;;;;;;48.43;31.53;;;7.60;99.90;;;;;;5048356;28;20253;-50
2023/01/09 03:40:30;;;;;;;60.43;28.73;;;7.60;99.90;;;;;;5021483;28;20241;-51
2023/01/09 03:42:58;;;;;;;103.87;36.70;;;7.70;99.90;;;;;;5039823;28;20231;-50
2023/01/09 03:45:26;;;;;;;326.73;56.97;;;7.70;99.90;;;;;;5049103;28;20585;-51
2023/01/09 03:47:56;;;;;;;321.97;49.87;;;7.70;99.90;;;;;;5025021;28;20223;-51
2023/01/09 03:50:25;;;;;;;719.40;143.03;;;7.70;99.90;;;;;;5048413;28;20237;-51
2023/01/09 03:52:53;;;;;;;169.63;49.37;;;7.70;99.90;;;;;;5036585;28;20236;-52
2023/01/09 03:55:21;;;;;;;1999.90;381.37;;;7.70;99.90;;;;;;5048653;28;20838;-52
2023/01/09 03:57:51;;;;;;;710.10;94.20;;;7.80;99.90;;;;;;5048634;28;20316;-51
2023/01/09 04:00:20;;;;;;;447.30;99.53;;;7.70;99.90;;;;;;5048627;28;20366;-52
2023/01/09 04:02:48;;;;;;;491.50;79.07;;;7.70;99.90;;;;;;5048659;28;20233;-52
2023/01/09 04:05:16;;;;;;;1144.50;179.03;;;7.70;99.90;;;;;;5048803;28;20209;-51
2023/01/09 04:07:46;;;;;;;59.30;21.37;;;7.70;99.90;;;;;;5046835;28;20218;-51
2023/01/09 04:10:14;;;;;;;67.53;32.57;;;7.80;99.90;;;;;;5048865;28;20244;-52
2023/01/09 04:12:42;;;;;;;74.57;28.27;;;7.70;99.90;;;;;;5048508;28;20292;-52
2023/01/09 04:15:11;;;;;;;10.87;10.00;;;7.80;99.90;;;;;;5049246;28;20819;-51
2023/01/09 04:17:39;;;;;;;101.10;31.77;;;7.80;99.90;;;;;;5048438;28;20295;-51
2023/01/09 04:20:08;;;;;;;20.27;18.87;;;7.80;99.90;;;;;;5048809;28;20232;-51
2023/01/09 04:22:36;;;;;;;297.27;78.27;;;7.70;99.90;;;;;;5048517;28;20245;-52
2023/01/09 04:25:06;;;;;;;282.83;54.90;;;7.70;99.90;;;;;;5021562;28;20233;-50
2023/01/09 04:27:34;;;;;;;70.57;23.03;;;7.70;99.90;;;;;;5049025;28;20300;-51
2023/01/09 04:30:02;;;;;;;869.33;140.77;;;7.70;99.90;;;;;;5048906;28;20315;-51
2023/01/09 04:32:30;;;;;;;22.20;12.27;;;7.70;99.90;;;;;;5042561;28;20269;-51
2023/01/09 04:34:58;;;;;;;161.47;50.10;;;7.70;99.90;;;;;;5043884;28;20321;-51
2023/01/09 04:37:26;;;;;;;93.77;25.87;;;7.70;99.90;;;;;;5048695;28;20927;-51
2023/01/09 04:39:55;;;;;;;945.80;145.50;;;7.70;99.90;;;;;;5052303;28;20834;-51
2023/01/09 04:42:24;;;;;;;1999.90;544.30;;;7.70;99.90;;;;;;5044974;28;20202;-51
2023/01/09 04:44:53;;;;;;;106.40;27.40;;;7.70;99.90;;;;;;5049676;28;20293;-51
2023/01/09 04:47:22;;;;;;;166.00;27.67;;;7.60;99.90;;;;;;5027537;28;20307;-52
2023/01/09 04:49:50;;;;;;;44.70;23.77;;;7.60;99.90;;;;;;5052119;28;20260;-51
2023/01/09 04:52:19;;;;;;;26.57;17.67;;;7.60;99.90;;;;;;5050654;28;20206;-51
2023/01/09 04:54:47;;;;;;;23.93;18.47;;;7.60;99.90;;;;;;5052037;28;20206;-52
2023/01/09 04:57:15;;;;;;;29.53;23.17;;;7.70;99.90;;;;;;5051332;28;20282;-51
2023/01/09 04:59:44;;;;;;;22.57;17.03;;;7.70;99.90;;;;;;5051794;28;20209;-52
2023/01/09 05:02:12;;;;;;;51.70;18.23;;;7.60;99.90;;;;;;5050967;28;20237;-50
2023/01/09 05:04:40;;;;;;;29.90;11.50;;;7.60;99.90;;;;;;5052075;28;20217;-50
2023/01/09 05:07:08;;;;;;;26.67;16.83;;;7.60;99.90;;;;;;5051856;28;20316;-52
2023/01/09 05:09:36;;;;;;;30.00;19.53;;;7.60;99.90;;;;;;5051436;28;20245;-51
2023/01/09 05:12:05;;;;;;;135.03;39.03;;;7.60;99.90;;;;;;5051248;28;20252;-51
2023/01/09 05:14:33;;;;;;;29.40;20.27;;;7.60;99.90;;;;;;5024798;28;20244;-51
2023/01/09 05:17:02;;;;;;;65.77;39.37;;;7.50;99.90;;;;;;5050912;28;20265;-51
2023/01/09 05:19:30;;;;;;;17.63;16.13;;;7.50;99.90;;;;;;5044213;28;20263;-51
2023/01/09 05:21:58;;;;;;;92.37;37.00;;;7.50;99.90;;;;;;5051224;28;20209;-54
2023/01/09 05:24:26;;;;;;;25.80;15.97;;;7.50;99.90;;;;;;5050082;28;20695;-50
2023/01/09 05:26:54;;;;;;;22.17;20.00;;;7.50;99.90;;;;;;5051319;28;20225;-51
2023/01/09 05:29:22;;;;;;;161.73;40.07;;;7.50;99.90;;;;;;5051108;28;20233;-51
2023/01/09 05:31:51;;;;;;;1162.57;201.20;;;7.40;99.90;;;;;;5049186;28;20299;-50
2023/01/09 05:34:21;;;;;;;656.80;150.03;;;7.40;99.90;;;;;;5050933;28;20206;-51
2023/01/09 05:36:49;;;;;;;18.47;15.53;;;7.40;99.90;;;;;;5041148;28;20261;-51
2023/01/09 05:39:17;;;;;;;36.53;24.27;;;7.30;99.90;;;;;;5045325;28;20242;-52
2023/01/09 05:41:45;;;;;;;60.30;30.13;;;7.30;99.90;;;;;;5023775;28;20289;-51
2023/01/09 05:44:13;;;;;;;176.97;54.53;;;7.20;99.90;;;;;;5032709;28;20230;-52
2023/01/09 05:46:41;;;;;;;19.07;16.60;;;7.20;99.90;;;;;;5048990;28;20233;-54
2023/01/09 05:49:09;;;;;;;36.83;29.53;;;7.10;99.90;;;;;;5041730;28;20202;-51
2023/01/09 05:51:38;;;;;;;19.60;15.87;;;7.10;99.90;;;;;;5051039;28;20209;-52
2023/01/09 05:54:07;;;;;;;31.23;27.33;;;7.00;99.90;;;;;;5050687;28;20240;-51
2023/01/09 05:56:35;;;;;;;22.00;13.80;;;7.00;99.90;;;;;;5050706;28;20240;-52
2023/01/09 05:59:03;;;;;;;28.73;20.77;;;7.00;99.90;;;;;;5050574;28;20947;-51
2023/01/09 06:01:31;;;;;;;47.70;29.70;;;7.00;99.90;;;;;;5046895;28;20244;-51
2023/01/09 06:03:59;;;;;;;30.13;21.83;;;7.00;99.90;;;;;;5050393;28;20206;-52
2023/01/09 06:06:27;;;;;;;94.73;34.37;;;7.00;99.90;;;;;;5050670;28;20430;-50
2023/01/09 06:08:56;;;;;;;10.70;8.70;;;6.90;99.90;;;;;;5050541;28;20296;-51
2023/01/09 06:11:24;;;;;;;21.47;17.27;;;6.80;99.90;;;;;;5050801;28;20300;-51
2023/01/09 06:13:52;;;;;;;20.90;18.93;;;6.80;99.90;;;;;;5050212;28;20317;-51
2023/01/09 06:16:20;;;;;;;36.60;29.47;;;6.80;99.90;;;;;;5050572;28;20237;-52
2023/01/09 06:18:49;;;;;;;21.70;19.37;;;6.70;99.90;;;;;;5050175;28;20705;-51
2023/01/09 06:21:17;;;;;;;32.20;21.20;;;6.60;99.90;;;;;;5045371;28;20244;-51
2023/01/09 06:23:45;;;;;;;11.07;10.10;;;6.60;99.90;;;;;;5042350;28;20213;-51
2023/01/09 06:26:14;;;;;;;52.40;16.87;;;6.50;99.90;;;;;;5042101;28;20202;-51
2023/01/09 06:28:42;;;;;;;94.83;31.43;;;6.50;99.90;;;;;;5050099;28;20248;-52
2023/01/09 06:31:12;;;;;;;100.10;43.30;;;6.40;99.90;;;;;;5050206;28;20208;-51
2023/01/09 06:33:40;;;;;;;75.93;28.53;;;6.30;99.90;;;;;;5049759;28;20219;-51
2023/01/09 06:36:09;;;;;;;81.17;21.80;;;6.40;99.90;;;;;;5049983;28;20297;-51
2023/01/09 06:38:36;;;;;;;29.43;26.17;;;6.40;99.90;;;;;;5049793;28;20264;-52
2023/01/09 06:41:05;;;;;;;25.43;22.73;;;6.50;99.90;;;;;;5049921;28;20645;-52
2023/01/09 06:43:34;;;;;;;39.20;20.83;;;6.50;99.90;;;;;;5049783;28;20239;-52
2023/01/09 06:46:04;;;;;;;30.37;18.27;;;6.40;99.90;;;;;;5047065;28;20308;-51
2023/01/09 06:48:32;;;;;;;22.03;14.33;;;6.30;99.90;;;;;;5022680;28;20292;-51
2023/01/09 06:51:00;;;;;;;42.87;24.83;;;6.20;99.90;;;;;;5048640;28;20245;-52
2023/01/09 06:53:28;;;;;;;105.97;42.73;;;6.10;99.90;;;;;;5025998;28;20237;-52
2023/01/09 06:55:56;;;;;;;253.23;59.90;;;6.10;99.90;;;;;;5037069;28;20239;-51
2023/01/09 06:58:24;;;;;;;33.87;25.77;;;6.00;99.90;;;;;;5049617;28;20298;-53
2023/01/09 07:00:55;;;;;;;296.63;54.50;;;5.90;99.90;;;;;;5049027;28;20243;-53
2023/01/09 07:03:23;;;;;;;94.73;31.43;;;5.80;99.90;;;;;;5049033;28;20263;-52
2023/01/09 07:05:51;;;;;;;76.07;21.27;;;5.80;99.90;;;;;;5049633;28;20211;-53
2023/01/09 07:08:19;;;;;;;26.90;20.23;;;5.80;99.90;;;;;;5049445;28;20225;-53
2023/01/09 07:10:47;;;;;;;51.30;20.97;;;5.80;99.90;;;;;;5049717;28;20258;-53
2023/01/09 07:13:15;;;;;;;80.07;41.50;;;5.80;99.90;;;;;;5048918;28;20248;-52
2023/01/09 07:15:43;;;;;;;234.97;36.17;;;5.90;99.90;;;;;;5049324;28;20210;-52
2023/01/09 07:18:12;;;;;;;68.33;25.63;;;5.90;99.90;;;;;;5049001;28;20227;-52
2023/01/09 07:20:41;;;;;;;71.90;34.60;;;6.00;99.90;;;;;;5037165;28;20220;-53
2023/01/09 07:23:11;;;;;;;62.63;21.30;;;6.10;99.90;;;;;;5048855;28;20240;-53
2023/01/09 07:25:39;;;;;;;56.47;32.10;;;6.10;99.90;;;;;;5038459;28;20208;-53
2023/01/09 07:28:07;;;;;;;48.03;15.87;;;6.10;99.90;;;;;;5010933;28;20667;-54
2023/01/09 07:30:35;;;;;;;74.90;28.53;;;6.20;99.90;;;;;;5034545;28;20236;-51
2023/01/09 07:33:04;;;;;;;88.37;28.83;;;6.20;99.90;;;;;;5048440;28;20252;-52
2023/01/09 07:35:33;;;;;;;165.60;55.57;;;6.20;99.90;;;;;;5049133;28;20209;-53
2023/01/09 07:38:01;;;;;;;337.37;92.57;;;6.20;99.90;;;;;;5048025;28;20304;-52
2023/01/09 07:40:29;;;;;;;329.63;80.87;;;6.10;99.90;;;;;;5048794;28;20224;-52
2023/01/09 07:42:57;;;;;;;783.93;119.63;;;6.10;99.90;;;;;;5048817;28;20289;-53
2023/01/09 07:45:25;;;;;;;171.03;53.07;;;6.10;99.90;;;;;;5033170;28;20206;-53
2023/01/09 07:47:53;;;;;;;268.83;62.43;;;6.20;99.90;;;;;;5030242;28;20824;-51
2023/01/09 07:50:21;;;;;;;334.20;72.47;;;6.10;99.90;;;;;;5038903;28;20292;-51
2023/01/09 07:52:51;;;;;;;436.40;73.60;;;6.20;99.90;;;;;;5048622;28;20209;-51
2023/01/09 07:55:19;;;;;;;373.80;79.43;;;6.20;99.90;;;;;;5048770;28;20209;-51
2023/01/09 07:57:48;;;;;;;467.80;77.23;;;6.20;99.90;;;;;;5047669;28;20260;-52
2023/01/09 08:00:19;;;;;;;1634.57;205.43;;;6.30;99.90;;;;;;5048543;28;20228;-52
2023/01/09 08:02:51;;;;;;;1116.27;177.80;;;6.30;99.90;;;;;;5034534;28;20217;-51
2023/01/09 08:05:20;;;;;;;260.73;59.90;;;6.40;99.90;;;;;;5047686;28;20669;-54
2023/01/09 08:07:49;;;;;;;297.50;70.27;;;6.40;99.90;;;;;;5048629;28;20328;-53
2023/01/09 08:10:19;;;;;;;215.30;61.87;;;6.40;99.90;;;;;;5048628;28;20215;-53
2023/01/09 08:12:48;;;;;;;459.80;119.43;;;6.40;99.90;;;;;;5049613;28;20209;-52
2023/01/09 08:15:17;;;;;;;25.87;22.00;;;6.40;99.90;;;;;;5046586;28;20291;-52
2023/01/09 08:17:45;;;;;;;250.20;56.77;;;6.40;99.90;;;;;;5050792;28;20347;-51
2023/01/09 08:20:15;;;;;;;895.07;186.57;;;6.40;99.90;;;;;;5043632;28;20352;-52
2023/01/09 08:22:48;;;;;;;393.90;62.30;;;6.40;99.90;;;;;;5043537;28;20248;-51
2023/01/09 08:25:17;;;;;;;1999.90;339.20;;;6.40;99.90;;;;;;5037603;28;20209;-52
2023/01/09 08:27:46;;;;;;;139.60;62.70;;;6.50;99.90;;;;;;5041187;28;20312;-51
2023/01/09 08:30:15;;;;;;;1065.93;192.07;;;6.50;99.90;;;;;;5052423;28;20204;-51
2023/01/09 08:32:48;;;;;;;316.97;69.63;;;6.40;99.90;;;;;;5051546;28;20241;-51
2023/01/09 08:35:16;;;;;;;604.37;92.53;;;6.40;99.90;;;;;;5052657;28;20267;-51
2023/01/09 08:37:44;;;;;;;341.80;77.27;;;6.40;99.90;;;;;;5052036;28;20237;-51
2023/01/09 08:40:13;;;;;;;316.20;84.93;;;6.40;99.90;;;;;;5038112;28;20255;-51
2023/01/09 08:48:14;;;;;;;1588.83;213.73;;;6.50;99.90;;;;;;5035403;28;20264;-52
2023/01/09 08:50:42;;;;;;;556.90;126.10;;;6.60;99.90;;;;;;5050968;28;20272;-51
2023/01/09 08:53:10;;;;;;;37.53;16.13;;;6.60;99.90;;;;;;5041346;28;20205;-50
2023/01/09 08:55:38;;;;;;;41.33;26.70;;;6.70;99.90;;;;;;5025561;28;20298;-51
2023/01/09 08:58:07;;;;;;;173.73;54.27;;;6.80;99.90;;;;;;5043431;28;20230;-51
2023/01/09 09:00:36;;;;;;;45.10;27.20;;;6.80;99.90;;;;;;5044562;28;20266;-51
2023/01/09 09:03:05;;;;;;;1796.10;257.60;;;6.80;99.90;;;;;;5031915;28;20302;-51
2023/01/09 09:05:33;;;;;;;535.10;104.70;;;6.70;99.90;;;;;;5030986;28;20206;-51
2023/01/09 09:08:02;;;;;;;393.87;81.33;;;6.70;99.90;;;;;;5031363;28;20966;-50
2023/01/09 09:10:30;;;;;;;789.90;114.13;;;6.70;99.90;;;;;;5022842;28;20217;-51
2023/01/09 09:12:59;;;;;;;526.30;107.93;;;6.70;99.90;;;;;;5027072;28;20252;-52
2023/01/09 09:15:28;;;;;;;1132.80;160.07;;;6.70;99.90;;;;;;5031349;28;20229;-51
2023/01/09 09:17:59;;;;;;;1999.90;545.13;;;6.80;99.90;;;;;;5031379;28;20580;-51
2023/01/09 09:20:30;;;;;;;1135.87;195.63;;;6.80;99.90;;;;;;5031506;28;20239;-54
2023/01/09 09:22:58;;;;;;;1577.40;213.83;;;6.70;99.90;;;;;;5030797;28;20742;-51
2023/01/09 09:25:27;;;;;;;1333.90;231.80;;;6.70;99.90;;;;;;5030036;28;20965;-51
2023/01/09 09:27:55;;;;;;;1999.90;444.83;;;6.80;99.90;;;;;;5031401;28;20249;-51
2023/01/09 09:30:24;;;;;;;1154.63;178.40;;;6.90;99.90;;;;;;5031480;28;20194;-51
2023/01/09 09:32:52;;;;;;;400.90;78.00;;;7.00;99.90;;;;;;5030049;28;20244;-51
2023/01/09 09:35:22;;;;;;;839.03;164.90;;;7.10;99.90;;;;;;5023952;28;20230;-51
2023/01/09 09:37:54;;;;;;;624.37;151.53;;;7.10;99.90;;;;;;5030413;28;20272;-52
2023/01/09 09:40:35;;;;;;;1001.60;165.50;;;7.10;99.90;;;;;;5031203;28;20233;-51
2023/01/09 09:46:28;;;;;;;1182.40;234.43;;;7.00;99.90;;;;;;5030984;28;20703;-52
2023/01/09 09:49:02;;;;;;;573.13;143.60;;;7.10;99.90;;;;;;5031237;28;20588;-51
2023/01/09 09:51:55;;;;;;;502.00;113.97;;;7.20;99.90;;;;;;5043675;28;20255;-52
2023/01/09 09:54:31;;;;;;;1587.13;230.43;;;7.10;99.90;;;;;;5027779;28;20303;-52
2023/01/09 09:57:03;;;;;;;1656.60;245.93;;;7.20;99.90;;;;;;5036858;28;20229;-51
2023/01/09 09:59:35;;;;;;;1292.00;235.23;;;7.20;99.90;;;;;;5031691;28;20305;-52
2023/01/09 10:02:22;;;;;;;1248.83;300.77;;;7.30;99.90;;;;;;5029929;28;20211;-51
2023/01/09 10:04:56;;;;;;;929.07;197.73;;;7.40;99.90;;;;;;5026397;28;20210;-51
2023/01/09 10:07:30;;;;;;;50.30;20.80;;;7.40;99.90;;;;;;5031140;28;20321;-51
2023/01/09 10:10:03;;;;;;;432.27;100.03;;;7.50;99.90;;;;;;5030763;28;20241;-51
2023/01/09 10:12:37;;;;;;;1999.90;404.77;;;7.50;99.90;;;;;;5020961;28;20294;-51
2023/01/09 10:15:15;;;;;;;1999.90;408.90;;;7.60;99.90;;;;;;5030613;28;20217;-51
2023/01/09 10:18:04;;;;;;;1068.10;202.77;;;7.60;99.90;;;;;;5030547;28;20886;-51
2023/01/09 10:20:57;;;;;;;1999.90;392.03;;;7.60;99.90;;;;;;5022322;28;20226;-50
2023/01/09 10:23:55;;;;;;;1246.20;222.67;;;7.50;99.90;;;;;;5020403;28;20692;-51
2023/01/09 10:26:29;;;;;;;462.60;106.27;;;7.50;99.90;;;;;;5026635;28;20244;-51
2023/01/09 10:29:18;;;;;;;1386.47;212.47;;;7.60;99.90;;;;;;5023707;28;20237;-50
2023/01/09 10:31:59;;;;;;;1534.57;190.43;;;7.70;99.90;;;;;;5014016;28;20199;-51
2023/01/09 10:34:38;;;;;;;216.90;71.23;;;7.70;99.90;;;;;;5026865;28;20253;-51
2023/01/09 10:37:10;;;;;;;143.37;47.37;;;7.80;99.90;;;;;;5028558;28;20230;-51
2023/01/09 10:39:44;;;;;;;99.77;45.40;;;7.90;99.90;;;;;;5029505;28;20293;-51
2023/01/09 10:42:21;;;;;;;1999.90;443.33;;;7.90;99.90;;;;;;5029612;28;20233;-50
2023/01/09 10:44:55;;;;;;;1430.97;197.70;;;7.90;99.90;;;;;;5029298;28;21036;-49
2023/01/09 10:47:28;;;;;;;648.50;118.70;;;7.80;99.90;;;;;;5029623;28;20759;-51
2023/01/09 10:49:57;;;;;;;1404.20;262.47;;;7.80;99.90;;;;;;5029828;28;20198;-52
2023/01/09 10:52:32;;;;;;;97.03;37.13;;;7.70;99.90;;;;;;5012690;28;20715;-51
2023/01/09 10:55:07;;;;;;;508.40;117.33;;;7.70;99.90;;;;;;5029956;28;20228;-50
2023/01/09 10:57:42;;;;;;;670.33;119.57;;;7.70;99.90;;;;;;5027055;28;20261;-51
2023/01/09 11:00:18;;;;;;;432.33;108.93;;;7.80;99.90;;;;;;5049456;28;20267;-50
2023/01/09 11:02:51;;;;;;;1106.00;203.83;;;7.80;99.90;;;;;;5025461;28;20209;-50
2023/01/09 11:05:22;;;;;;;909.23;173.57;;;7.80;99.90;;;;;;5048953;28;20212;-51
2023/01/09 11:07:55;;;;;;;652.73;126.93;;;7.70;99.90;;;;;;5049149;28;20717;-51
2023/01/09 11:10:45;;;;;;;1999.90;465.27;;;7.80;99.90;;;;;;5022116;28;20599;-51
2023/01/09 11:13:18;;;;;;;1859.67;252.33;;;7.70;99.90;;;;;;5049330;28;20202;-51
2023/01/09 11:15:58;;;;;;;994.07;177.00;;;7.70;99.90;;;;;;5049255;28;20209;-51
2023/01/09 11:18:27;;;;;;;1995.90;341.03;;;7.70;99.90;;;;;;5049129;28;20713;-51
2023/01/09 11:20:55;;;;;;;1999.90;412.13;;;7.70;99.90;;;;;;5049494;28;20233;-51
2023/01/09 11:23:29;;;;;;;1879.17;309.67;;;7.80;99.90;;;;;;5035180;28;20267;-51
2023/01/09 11:26:01;;;;;;;1764.43;286.93;;;7.70;99.90;;;;;;5049375;28;20244;-50
2023/01/09 11:28:29;;;;;;;848.07;193.90;;;7.70;99.90;;;;;;5048721;28;20264;-52
2023/01/09 11:30:59;;;;;;;1301.47;183.53;;;7.60;99.90;;;;;;5029385;28;20245;-50
2023/01/09 11:33:30;;;;;;;1809.93;284.80;;;7.60;99.90;;;;;;5048638;28;20256;-50
2023/01/09 11:36:06;;;;;;;697.37;147.03;;;7.60;99.90;;;;;;5041555;28;20209;-51
2023/01/09 11:38:49;;;;;;;1344.10;274.20;;;7.60;99.90;;;;;;5048721;28;20229;-51
2023/01/09 11:41:21;;;;;;;633.00;110.97;;;7.50;99.90;;;;;;5048849;28;20217;-51
2023/01/09 11:43:51;;;;;;;898.67;196.77;;;7.50;99.90;;;;;;5038917;28;20213;-50
2023/01/09 11:46:34;;;;;;;1822.47;313.80;;;7.50;99.90;;;;;;5048316;28;20244;-51
2023/01/09 11:49:05;;;;;;;468.23;79.50;;;7.50;99.90;;;;;;5029406;28;20217;-51
2023/01/09 11:51:35;;;;;;;1999.90;372.80;;;7.50;99.90;;;;;;5048099;28;20202;-49
2023/01/09 11:54:15;;;;;;;1999.90;588.73;;;7.50;99.90;;;;;;5048196;28;20259;-50
2023/01/09 11:56:46;;;;;;;1070.30;219.03;;;7.50;99.90;;;;;;5048946;28;20260;-49
2023/01/09 11:59:15;;;;;;;1999.90;297.83;;;7.50;99.90;;;;;;5048411;28;20284;-49
2023/01/09 12:02:11;;;;;;;1999.90;481.47;;;7.50;99.90;;;;;;5034458;28;20260;-52
2023/01/09 12:04:48;;;;;;;1264.60;222.43;;;7.50;99.90;;;;;;5026559;28;20217;-50
2023/01/09 12:07:39;;;;;;;957.63;144.03;;;7.60;99.90;;;;;;5026805;28;20280;-49
2023/01/09 12:10:25;;;;;;;762.60;110.17;;;7.70;99.90;;;;;;5022301;28;20260;-50
2023/01/09 12:13:03;;;;;;;1999.90;647.40;;;7.70;99.90;;;;;;5027139;28;20216;-51
2023/01/09 12:15:38;;;;;;;581.37;127.60;;;7.70;99.90;;;;;;5028691;28;20279;-51
2023/01/09 12:18:23;;;;;;;691.40;109.03;;;7.70;99.90;;;;;;5028753;28;20276;-51
2023/01/09 12:21:12;;;;;;;1496.97;205.93;;;7.70;99.90;;;;;;5025037;28;20598;-50
2023/01/09 12:23:52;;;;;;;1141.03;312.63;;;7.90;99.90;;;;;;5028188;28;20659;-50
2023/01/09 12:26:24;;;;;;;1342.33;184.70;;;8.10;99.90;;;;;;5020264;28;20237;-50
2023/01/09 12:29:13;;;;;;;1999.90;397.13;;;8.20;99.90;;;;;;5028438;28;20238;-50
2023/01/09 12:32:04;;;;;;;1876.77;304.60;;;8.20;99.90;;;;;;5044586;28;20285;-51
2023/01/09 12:34:59;;;;;;;752.77;106.77;;;8.30;99.90;;;;;;5043498;28;20230;-51
2023/01/09 12:37:40;;;;;;;371.17;68.67;;;8.30;99.90;;;;;;5045305;28;20227;-51
2023/01/09 12:40:24;;;;;;;685.27;123.27;;;8.50;99.90;;;;;;5042202;28;20210;-51
2023/01/09 12:42:58;;;;;;;1999.90;420.03;;;8.50;99.90;;;;;;5022342;28;20339;-51
2023/01/09 12:45:37;;;;;;;1999.90;453.83;;;8.50;99.90;;;;;;5028144;28;20271;-51
2023/01/09 12:48:18;;;;;;;1999.90;521.37;;;8.50;99.90;;;;;;5028629;28;20283;-50
2023/01/09 12:51:08;;;;;;;646.00;166.33;;;8.40;99.90;;;;;;5034459;28;20296;-51
2023/01/09 12:53:40;;;;;;;1580.07;223.83;;;8.40;99.90;;;;;;5045900;28;20209;-51
2023/01/09 12:56:11;;;;;;;1182.67;177.87;;;8.40;99.90;;;;;;5048501;28;20210;-51
2023/01/09 12:58:44;;;;;;;1441.17;252.03;;;8.40;99.90;;;;;;5048946;28;20230;-50